sensor_id;sensor_type;location;lat;lon;timestamp;temperature;humidity
66013;DHT22;52783;50.502;8.190;2023-06-24T00:02:04;16.70;99.90
66013;DHT22;52783;50.502;8.190;2023-06-24T00:04:29;16.70;99.90
66013;DHT22;52783;50.502;8.190;2023-06-24T00:06:55;16.70;99.90
66013;DHT22;52783;50.502;8.190;2023-06-24T00:09:25;16.60;99.90
66013;DHT22;52783;50.502;8.190;2023-06-24T00:11:50;16.60;99.90
66013;DHT22;52783;50.502;8.190;2023-06-24T00:14:16;16.70;99.90
66013;DHT22;52783;50.502;8.190;2023-06-24T00:16:42;16.60;99.90
66013;DHT22;52783;50.502;8.190;2023-06-24T00:19:07;16.60;99.90
66013;DHT22;52783;50.502;8.190;2023-06-24T00:21:33;16.60;99.90
66013;DHT22;52783;50.502;8.190;2023-06-24T00:23:59;16.60;99.90
66013;DHT22;52783;50.502;8.190;2023-06-24T00:26:27;16.60;99.90
66013;DHT22;52783;50.502;8.190;2023-06-24T00:28:53;16.50;99.90
66013;DHT22;52783;50.502;8.190;2023-06-24T00:31:19;16.50;99.90
66013;DHT22;52783;50.502;8.190;2023-06-24T00:33:45;16.40;99.90
66013;DHT22;52783;50.502;8.190;2023-06-24T00:36:11;16.40;99.90
66013;DHT22;52783;50.502;8.190;2023-06-24T00:38:37;16.40;99.90
66013;DHT22;52783;50.502;8.190;2023-06-24T00:41:03;16.40;99.90
66013;DHT22;52783;50.502;8.190;2023-06-24T00:43:29;16.40;99.90
66013;DHT22;52783;50.502;8.190;2023-06-24T00:45:56;16.40;99.90
66013;DHT22;52783;50.502;8.190;2023-06-24T00:48:21;16.40;99.90
66013;DHT22;52783;50.502;8.190;2023-06-24T00:50:47;16.50;99.90
66013;DHT22;52783;50.502;8.190;2023-06-24T00:53:18;16.40;99.90
66013;DHT22;52783;50.502;8.190;2023-06-24T00:55:45;16.20;99.90
66013;DHT22;52783;50.502;8.190;2023-06-24T00:58:13;16.30;99.90
66013;DHT22;52783;50.502;8.190;2023-06-24T01:00:42;16.30;99.90
66013;DHT22;52783;50.502;8.190;2023-06-24T01:03:09;16.20;99.90
66013;DHT22;52783;50.502;8.190;2023-06-24T01:05:35;16.10;99.90
66013;DHT22;52783;50.502;8.190;2023-06-24T01:08:02;16.10;99.90
66013;DHT22;52783;50.502;8.190;2023-06-24T01:10:27;16.00;99.90
66013;DHT22;52783;50.502;8.190;2023-06-24T01:12:53;16.10;99.90
66013;DHT22;52783;50.502;8.190;2023-06-24T01:15:19;16.10;99.90
66013;DHT22;52783;50.502;8.190;2023-06-24T01:18:13;16.00;99.90
66013;DHT22;52783;50.502;8.190;2023-06-24T01:26:12;16.00;99.90
66013;DHT22;52783;50.502;8.190;2023-06-24T01:31:38;16.00;99.90
66013;DHT22;52783;50.502;8.190;2023-06-24T01:34:20;15.90;99.90
66013;DHT22;52783;50.502;8.190;2023-06-24T01:36:57;15.90;99.90
66013;DHT22;52783;50.502;8.190;2023-06-24T01:39:27;15.80;99.90
66013;DHT22;52783;50.502;8.190;2023-06-24T01:42:00;15.70;99.90
66013;DHT22;52783;50.502;8.190;2023-06-24T01:44:28;15.70;99.90
66013;DHT22;52783;50.502;8.190;2023-06-24T01:46:55;15.70;99.90
66013;DHT22;52783;50.502;8.190;2023-06-24T01:49:23;15.70;99.90
66013;DHT22;52783;50.502;8.190;2023-06-24T01:51:54;15.70;99.90
66013;DHT22;52783;50.502;8.190;2023-06-24T01:54:22;15.70;99.90
66013;DHT22;52783;50.502;8.190;2023-06-24T01:56:50;15.60;99.90
66013;DHT22;52783;50.502;8.190;2023-06-24T01:59:19;15.60;99.90
66013;DHT22;52783;50.502;8.190;2023-06-24T02:01:45;15.60;99.90
66013;DHT22;52783;50.502;8.190;2023-06-24T02:04:12;15.60;99.90
66013;DHT22;52783;50.502;8.190;2023-06-24T02:06:40;15.60;99.90
66013;DHT22;52783;50.502;8.190;2023-06-24T02:09:07;15.60;99.90
66013;DHT22;52783;50.502;8.190;2023-06-24T02:11:33;15.60;99.90
66013;DHT22;52783;50.502;8.190;2023-06-24T02:14:02;15.60;99.90
66013;DHT22;52783;50.502;8.190;2023-06-24T02:16:29;15.50;99.90
66013;DHT22;52783;50.502;8.190;2023-06-24T02:18:56;15.50;99.90
66013;DHT22;52783;50.502;8.190;2023-06-24T02:21:23;15.50;99.90
66013;DHT22;52783;50.502;8.190;2023-06-24T02:23:49;15.50;99.90
66013;DHT22;52783;50.502;8.190;2023-06-24T02:26:16;15.50;99.90
66013;DHT22;52783;50.502;8.190;2023-06-24T02:28:44;15.60;99.90
66013;DHT22;52783;50.502;8.190;2023-06-24T02:31:12;15.50;99.90
66013;DHT22;52783;50.502;8.190;2023-06-24T02:33:38;15.50;99.90
66013;DHT22;52783;50.502;8.190;2023-06-24T02:36:04;15.50;99.90
66013;DHT22;52783;50.502;8.190;2023-06-24T02:38:29;15.40;99.90
66013;DHT22;52783;50.502;8.190;2023-06-24T02:40:55;15.40;99.90
66013;DHT22;52783;50.502;8.190;2023-06-24T02:43:22;15.40;99.90
66013;DHT22;52783;50.502;8.190;2023-06-24T02:45:48;15.40;99.90
66013;DHT22;52783;50.502;8.190;2023-06-24T02:48:15;15.30;99.90
66013;DHT22;52783;50.502;8.190;2023-06-24T02:50:41;15.30;99.90
66013;DHT22;52783;50.502;8.190;2023-06-24T02:53:14;15.30;99.90
66013;DHT22;52783;50.502;8.190;2023-06-24T02:55:40;15.30;99.90
66013;DHT22;52783;50.502;8.190;2023-06-24T02:58:08;15.20;99.90
66013;DHT22;52783;50.502;8.190;2023-06-24T03:00:34;15.20;99.90
66013;DHT22;52783;50.502;8.190;2023-06-24T03:03:04;15.20;99.90
66013;DHT22;52783;50.502;8.190;2023-06-24T03:05:31;15.20;99.90
66013;DHT22;52783;50.502;8.190;2023-06-24T03:07:58;15.20;99.90
66013;DHT22;52783;50.502;8.190;2023-06-24T03:10:24;15.20;99.90
66013;DHT22;52783;50.502;8.190;2023-06-24T03:12:51;15.10;99.90
66013;DHT22;52783;50.502;8.190;2023-06-24T03:15:17;15.10;99.90
66013;DHT22;52783;50.502;8.190;2023-06-24T03:17:43;15.10;99.90
66013;DHT22;52783;50.502;8.190;2023-06-24T03:20:09;15.10;99.90
66013;DHT22;52783;50.502;8.190;2023-06-24T03:22:35;15.10;99.90
66013;DHT22;52783;50.502;8.190;2023-06-24T03:25:00;15.10;99.90
66013;DHT22;52783;50.502;8.190;2023-06-24T03:27:26;15.10;99.90
66013;DHT22;52783;50.502;8.190;2023-06-24T03:29:51;15.10;99.90
66013;DHT22;52783;50.502;8.190;2023-06-24T03:32:17;15.20;99.90
66013;DHT22;52783;50.502;8.190;2023-06-24T03:34:42;15.20;99.90
66013;DHT22;52783;50.502;8.190;2023-06-24T03:37:08;15.20;99.90
66013;DHT22;52783;50.502;8.190;2023-06-24T03:39:34;15.10;99.90
66013;DHT22;52783;50.502;8.190;2023-06-24T03:41:59;15.10;99.90
66013;DHT22;52783;50.502;8.190;2023-06-24T03:44:26;15.10;99.90
66013;DHT22;52783;50.502;8.190;2023-06-24T03:46:51;15.20;99.90
66013;DHT22;52783;50.502;8.190;2023-06-24T03:49:17;15.20;99.90
66013;DHT22;52783;50.502;8.190;2023-06-24T03:51:43;15.30;99.90
66013;DHT22;52783;50.502;8.190;2023-06-24T03:54:09;15.30;99.90
66013;DHT22;52783;50.502;8.190;2023-06-24T03:56:35;15.30;99.90
66013;DHT22;52783;50.502;8.190;2023-06-24T03:59:00;15.40;99.90
66013;DHT22;52783;50.502;8.190;2023-06-24T04:01:26;15.40;99.90
66013;DHT22;52783;50.502;8.190;2023-06-24T04:03:51;15.50;99.90
66013;DHT22;52783;50.502;8.190;2023-06-24T04:06:17;15.50;99.90
66013;DHT22;52783;50.502;8.190;2023-06-24T04:08:42;15.50;99.90
66013;DHT22;52783;50.502;8.190;2023-06-24T04:11:14;15.50;99.90
66013;DHT22;52783;50.502;8.190;2023-06-24T04:13:39;15.50;99.90
66013;DHT22;52783;50.502;8.190;2023-06-24T04:16:05;15.60;99.90
66013;DHT22;52783;50.502;8.190;2023-06-24T04:18:30;15.60;99.90
66013;DHT22;52783;50.502;8.190;2023-06-24T04:20:56;15.70;99.90
66013;DHT22;52783;50.502;8.190;2023-06-24T04:23:23;15.90;99.90
66013;DHT22;52783;50.502;8.190;2023-06-24T04:25:49;16.00;99.90
66013;DHT22;52783;50.502;8.190;2023-06-24T04:28:14;16.20;99.90
66013;DHT22;52783;50.502;8.190;2023-06-24T04:30:40;16.40;99.90
66013;DHT22;52783;50.502;8.190;2023-06-24T04:33:05;16.80;99.90
66013;DHT22;52783;50.502;8.190;2023-06-24T04:35:31;17.20;99.90
66013;DHT22;52783;50.502;8.190;2023-06-24T04:37:56;17.60;99.90
66013;DHT22;52783;50.502;8.190;2023-06-24T04:40:22;18.10;99.90
66013;DHT22;52783;50.502;8.190;2023-06-24T04:42:48;18.40;99.90
66013;DHT22;52783;50.502;8.190;2023-06-24T04:45:14;18.60;99.90
66013;DHT22;52783;50.502;8.190;2023-06-24T04:47:40;18.80;99.90
66013;DHT22;52783;50.502;8.190;2023-06-24T04:50:06;19.10;99.90
66013;DHT22;52783;50.502;8.190;2023-06-24T04:52:35;19.50;99.90
66013;DHT22;52783;50.502;8.190;2023-06-24T04:55:00;19.60;99.90
66013;DHT22;52783;50.502;8.190;2023-06-24T04:57:28;19.90;99.90
66013;DHT22;52783;50.502;8.190;2023-06-24T04:59:54;20.30;99.90
66013;DHT22;52783;50.502;8.190;2023-06-24T05:02:20;20.70;99.90
66013;DHT22;52783;50.502;8.190;2023-06-24T05:04:45;21.00;99.90
66013;DHT22;52783;50.502;8.190;2023-06-24T05:07:11;21.10;99.90
66013;DHT22;52783;50.502;8.190;2023-06-24T05:09:37;21.30;99.90
66013;DHT22;52783;50.502;8.190;2023-06-24T05:12:07;21.40;99.90
66013;DHT22;52783;50.502;8.190;2023-06-24T05:14:36;21.50;99.90
66013;DHT22;52783;50.502;8.190;2023-06-24T05:17:05;21.60;99.90
66013;DHT22;52783;50.502;8.190;2023-06-24T05:19:31;22.00;99.90
66013;DHT22;52783;50.502;8.190;2023-06-24T05:21:57;22.10;99.90
66013;DHT22;52783;50.502;8.190;2023-06-24T05:24:22;22.30;99.90
66013;DHT22;52783;50.502;8.190;2023-06-24T05:26:50;22.50;99.90
66013;DHT22;52783;50.502;8.190;2023-06-24T05:29:16;22.70;99.90
66013;DHT22;52783;50.502;8.190;2023-06-24T05:31:42;23.00;99.90
66013;DHT22;52783;50.502;8.190;2023-06-24T05:34:07;23.00;99.90
66013;DHT22;52783;50.502;8.190;2023-06-24T05:36:33;23.00;99.90
66013;DHT22;52783;50.502;8.190;2023-06-24T05:38:59;23.20;99.90
66013;DHT22;52783;50.502;8.190;2023-06-24T05:41:25;23.40;99.90
66013;DHT22;52783;50.502;8.190;2023-06-24T05:44:02;23.10;99.90
66013;DHT22;52783;50.502;8.190;2023-06-24T05:46:28;23.10;99.90
66013;DHT22;52783;50.502;8.190;2023-06-24T05:48:53;23.60;99.90
66013;DHT22;52783;50.502;8.190;2023-06-24T05:51:19;23.40;99.90
66013;DHT22;52783;50.502;8.190;2023-06-24T05:53:44;23.70;99.90
66013;DHT22;52783;50.502;8.190;2023-06-24T05:56:10;23.90;99.90
66013;DHT22;52783;50.502;8.190;2023-06-24T05:58:35;22.90;99.90
66013;DHT22;52783;50.502;8.190;2023-06-24T06:01:01;22.80;99.90
66013;DHT22;52783;50.502;8.190;2023-06-24T06:03:26;24.10;99.90
66013;DHT22;52783;50.502;8.190;2023-06-24T06:05:52;24.30;99.90
66013;DHT22;52783;50.502;8.190;2023-06-24T06:08:17;24.60;99.90
66013;DHT22;52783;50.502;8.190;2023-06-24T06:10:43;24.70;99.90
66013;DHT22;52783;50.502;8.190;2023-06-24T06:13:08;25.50;99.90
66013;DHT22;52783;50.502;8.190;2023-06-24T06:15:34;25.90;99.90
66013;DHT22;52783;50.502;8.190;2023-06-24T06:17:59;26.50;99.90
66013;DHT22;52783;50.502;8.190;2023-06-24T06:20:25;26.10;99.90
66013;DHT22;52783;50.502;8.190;2023-06-24T06:22:51;26.40;99.90
66013;DHT22;52783;50.502;8.190;2023-06-24T06:25:16;26.50;99.90
66013;DHT22;52783;50.502;8.190;2023-06-24T06:27:42;26.50;99.90
66013;DHT22;52783;50.502;8.190;2023-06-24T06:30:08;26.70;99.90
66013;DHT22;52783;50.502;8.190;2023-06-24T06:32:34;26.70;99.90
66013;DHT22;52783;50.502;8.190;2023-06-24T06:34:59;26.70;99.90
66013;DHT22;52783;50.502;8.190;2023-06-24T06:37:25;27.20;99.90
66013;DHT22;52783;50.502;8.190;2023-06-24T06:39:50;27.20;99.90
66013;DHT22;52783;50.502;8.190;2023-06-24T06:42:16;28.00;99.90
66013;DHT22;52783;50.502;8.190;2023-06-24T06:44:42;28.20;99.90
66013;DHT22;52783;50.502;8.190;2023-06-24T06:47:07;28.60;99.90
66013;DHT22;52783;50.502;8.190;2023-06-24T06:49:33;28.20;99.90
66013;DHT22;52783;50.502;8.190;2023-06-24T06:51:59;28.00;99.90
66013;DHT22;52783;50.502;8.190;2023-06-24T06:54:24;26.00;99.90
66013;DHT22;52783;50.502;8.190;2023-06-24T06:56:50;27.30;99.90
66013;DHT22;52783;50.502;8.190;2023-06-24T06:59:15;28.00;99.90
66013;DHT22;52783;50.502;8.190;2023-06-24T07:01:41;28.40;99.90
66013;DHT22;52783;50.502;8.190;2023-06-24T07:04:07;27.90;99.90
66013;DHT22;52783;50.502;8.190;2023-06-24T07:06:32;28.10;99.90
66013;DHT22;52783;50.502;8.190;2023-06-24T07:08:59;28.40;99.90
66013;DHT22;52783;50.502;8.190;2023-06-24T07:11:24;28.70;99.90
66013;DHT22;52783;50.502;8.190;2023-06-24T07:13:51;29.20;99.90
66013;DHT22;52783;50.502;8.190;2023-06-24T07:16:17;28.20;99.90
66013;DHT22;52783;50.502;8.190;2023-06-24T07:18:43;28.90;99.90
66013;DHT22;52783;50.502;8.190;2023-06-24T07:21:09;29.50;99.90
66013;DHT22;52783;50.502;8.190;2023-06-24T07:23:34;29.10;99.90
66013;DHT22;52783;50.502;8.190;2023-06-24T07:26:00;28.30;99.90
66013;DHT22;52783;50.502;8.190;2023-06-24T07:28:25;29.70;99.90
66013;DHT22;52783;50.502;8.190;2023-06-24T07:30:51;29.60;99.90
66013;DHT22;52783;50.502;8.190;2023-06-24T07:33:17;31.00;99.90
66013;DHT22;52783;50.502;8.190;2023-06-24T07:35:42;30.80;99.90
66013;DHT22;52783;50.502;8.190;2023-06-24T07:38:08;30.60;99.90
66013;DHT22;52783;50.502;8.190;2023-06-24T07:40:33;30.60;99.90
66013;DHT22;52783;50.502;8.190;2023-06-24T07:42:59;30.20;99.90
66013;DHT22;52783;50.502;8.190;2023-06-24T07:45:24;30.50;99.90
66013;DHT22;52783;50.502;8.190;2023-06-24T07:47:51;30.60;99.90
66013;DHT22;52783;50.502;8.190;2023-06-24T07:50:16;30.10;99.90
66013;DHT22;52783;50.502;8.190;2023-06-24T07:52:42;30.30;99.90
66013;DHT22;52783;50.502;8.190;2023-06-24T07:55:08;30.60;99.90
66013;DHT22;52783;50.502;8.190;2023-06-24T07:57:33;30.50;99.90
66013;DHT22;52783;50.502;8.190;2023-06-24T07:59:59;30.40;99.90
66013;DHT22;52783;50.502;8.190;2023-06-24T08:02:24;30.80;99.90
66013;DHT22;52783;50.502;8.190;2023-06-24T08:04:51;30.10;99.90
66013;DHT22;52783;50.502;8.190;2023-06-24T08:07:17;30.80;99.90
66013;DHT22;52783;50.502;8.190;2023-06-24T08:09:43;30.90;99.90
66013;DHT22;52783;50.502;8.190;2023-06-24T08:12:09;30.30;99.90
66013;DHT22;52783;50.502;8.190;2023-06-24T08:14:35;30.60;99.90
66013;DHT22;52783;50.502;8.190;2023-06-24T08:17:01;29.70;99.90
66013;DHT22;52783;50.502;8.190;2023-06-24T08:19:26;29.30;99.90
66013;DHT22;52783;50.502;8.190;2023-06-24T08:21:52;30.30;99.90
66013;DHT22;52783;50.502;8.190;2023-06-24T08:24:19;30.20;99.90
66013;DHT22;52783;50.502;8.190;2023-06-24T08:26:44;30.20;99.90
66013;DHT22;52783;50.502;8.190;2023-06-24T08:29:10;30.90;99.90
66013;DHT22;52783;50.502;8.190;2023-06-24T08:31:35;31.10;99.90
66013;DHT22;52783;50.502;8.190;2023-06-24T08:34:01;30.80;99.90
66013;DHT22;52783;50.502;8.190;2023-06-24T08:36:32;30.50;99.90
66013;DHT22;52783;50.502;8.190;2023-06-24T08:38:57;30.90;99.90
66013;DHT22;52783;50.502;8.190;2023-06-24T08:41:24;31.10;99.90
66013;DHT22;52783;50.502;8.190;2023-06-24T08:43:53;31.20;99.90
66013;DHT22;52783;50.502;8.190;2023-06-24T08:46:19;30.00;99.90
66013;DHT22;52783;50.502;8.190;2023-06-24T08:48:45;30.90;99.90
66013;DHT22;52783;50.502;8.190;2023-06-24T08:51:15;29.10;99.90
66013;DHT22;52783;50.502;8.190;2023-06-24T08:53:43;31.10;99.90
66013;DHT22;52783;50.502;8.190;2023-06-24T08:56:11;29.90;99.90
66013;DHT22;52783;50.502;8.190;2023-06-24T08:58:40;30.80;99.90
66013;DHT22;52783;50.502;8.190;2023-06-24T09:01:06;31.30;99.90
66013;DHT22;52783;50.502;8.190;2023-06-24T09:03:32;32.00;99.90
66013;DHT22;52783;50.502;8.190;2023-06-24T09:05:57;30.50;99.90
66013;DHT22;52783;50.502;8.190;2023-06-24T09:08:23;30.60;99.90
66013;DHT22;52783;50.502;8.190;2023-06-24T09:10:53;31.00;99.90
66013;DHT22;52783;50.502;8.190;2023-06-24T09:13:33;31.10;99.90
66013;DHT22;52783;50.502;8.190;2023-06-24T09:15:59;32.20;99.90
66013;DHT22;52783;50.502;8.190;2023-06-24T09:18:31;32.00;99.90
66013;DHT22;52783;50.502;8.190;2023-06-24T09:20:56;31.90;99.90
66013;DHT22;52783;50.502;8.190;2023-06-24T09:23:25;31.00;99.90
66013;DHT22;52783;50.502;8.190;2023-06-24T09:25:58;31.70;99.90
66013;DHT22;52783;50.502;8.190;2023-06-24T09:28:27;32.00;99.90
66013;DHT22;52783;50.502;8.190;2023-06-24T09:31:09;32.00;99.90
66013;DHT22;52783;50.502;8.190;2023-06-24T09:33:35;32.20;99.90
66013;DHT22;52783;50.502;8.190;2023-06-24T09:36:03;32.60;99.90
66013;DHT22;52783;50.502;8.190;2023-06-24T09:38:34;32.80;99.90
66013;DHT22;52783;50.502;8.190;2023-06-24T09:41:05;32.30;99.90
66013;DHT22;52783;50.502;8.190;2023-06-24T09:43:34;32.00;99.90
66013;DHT22;52783;50.502;8.190;2023-06-24T09:46:01;32.10;99.90
66013;DHT22;52783;50.502;8.190;2023-06-24T09:48:27;31.70;99.90
66013;DHT22;52783;50.502;8.190;2023-06-24T09:51:00;32.50;99.90
66013;DHT22;52783;50.502;8.190;2023-06-24T09:53:30;32.40;99.90
66013;DHT22;52783;50.502;8.190;2023-06-24T09:55:55;31.00;99.90
66013;DHT22;52783;50.502;8.190;2023-06-24T09:58:22;29.60;99.90
66013;DHT22;52783;50.502;8.190;2023-06-24T10:00:49;31.20;99.90
66013;DHT22;52783;50.502;8.190;2023-06-24T10:03:15;31.90;99.90
66013;DHT22;52783;50.502;8.190;2023-06-24T10:05:41;32.20;99.90
66013;DHT22;52783;50.502;8.190;2023-06-24T10:08:07;32.20;99.90
66013;DHT22;52783;50.502;8.190;2023-06-24T10:10:33;31.90;99.90
66013;DHT22;52783;50.502;8.190;2023-06-24T10:12:59;32.20;99.90
66013;DHT22;52783;50.502;8.190;2023-06-24T10:15:25;32.60;99.90
66013;DHT22;52783;50.502;8.190;2023-06-24T10:17:51;32.70;99.90
66013;DHT22;52783;50.502;8.190;2023-06-24T10:20:26;32.70;99.90
66013;DHT22;52783;50.502;8.190;2023-06-24T10:22:52;33.70;99.90
66013;DHT22;52783;50.502;8.190;2023-06-24T10:25:18;33.50;99.90
66013;DHT22;52783;50.502;8.190;2023-06-24T10:27:44;33.20;99.90
66013;DHT22;52783;50.502;8.190;2023-06-24T10:30:19;33.40;99.90
66013;DHT22;52783;50.502;8.190;2023-06-24T10:32:51;31.60;99.90
66013;DHT22;52783;50.502;8.190;2023-06-24T10:38:00;31.60;99.90
66013;DHT22;52783;50.502;8.190;2023-06-24T10:40:42;30.10;99.90
66013;DHT22;52783;50.502;8.190;2023-06-24T10:43:27;29.60;99.90
66013;DHT22;52783;50.502;8.190;2023-06-24T10:45:56;28.80;99.90
66013;DHT22;52783;50.502;8.190;2023-06-24T10:48:22;29.00;99.90
66013;DHT22;52783;50.502;8.190;2023-06-24T10:50:48;28.50;99.90
66013;DHT22;52783;50.502;8.190;2023-06-24T10:53:15;28.80;99.90
66013;DHT22;52783;50.502;8.190;2023-06-24T10:55:41;28.80;99.90
66013;DHT22;52783;50.502;8.190;2023-06-24T10:58:10;28.00;99.90
66013;DHT22;52783;50.502;8.190;2023-06-24T11:00:41;28.40;99.90
66013;DHT22;52783;50.502;8.190;2023-06-24T11:03:10;28.40;99.90
66013;DHT22;52783;50.502;8.190;2023-06-24T11:05:41;27.90;99.90
66013;DHT22;52783;50.502;8.190;2023-06-24T11:08:10;27.60;99.90
66013;DHT22;52783;50.502;8.190;2023-06-24T11:10:46;27.10;99.90
66013;DHT22;52783;50.502;8.190;2023-06-24T11:13:12;27.10;99.90
66013;DHT22;52783;50.502;8.190;2023-06-24T11:15:39;27.50;99.90
66013;DHT22;52783;50.502;8.190;2023-06-24T11:18:08;27.70;99.90
66013;DHT22;52783;50.502;8.190;2023-06-24T11:20:38;28.10;99.90
66013;DHT22;52783;50.502;8.190;2023-06-24T11:23:07;27.50;99.90
66013;DHT22;52783;50.502;8.190;2023-06-24T11:25:42;28.30;99.90
66013;DHT22;52783;50.502;8.190;2023-06-24T11:28:18;28.60;99.90
66013;DHT22;52783;50.502;8.190;2023-06-24T11:30:43;28.70;99.90
66013;DHT22;52783;50.502;8.190;2023-06-24T11:33:09;28.70;99.90
66013;DHT22;52783;50.502;8.190;2023-06-24T11:35:35;28.60;99.90
66013;DHT22;52783;50.502;8.190;2023-06-24T11:38:02;27.90;99.90
66013;DHT22;52783;50.502;8.190;2023-06-24T11:40:27;27.40;99.90
66013;DHT22;52783;50.502;8.190;2023-06-24T11:42:55;27.40;99.90
66013;DHT22;52783;50.502;8.190;2023-06-24T11:45:21;27.80;99.90
66013;DHT22;52783;50.502;8.190;2023-06-24T11:47:47;27.20;99.90
66013;DHT22;52783;50.502;8.190;2023-06-24T11:50:14;27.10;99.90
66013;DHT22;52783;50.502;8.190;2023-06-24T11:52:47;27.70;99.90
66013;DHT22;52783;50.502;8.190;2023-06-24T11:57:54;27.80;99.90
66013;DHT22;52783;50.502;8.190;2023-06-24T12:02:52;28.20;99.90
66013;DHT22;52783;50.502;8.190;2023-06-24T12:05:28;28.20;99.90
66013;DHT22;52783;50.502;8.190;2023-06-24T12:07:58;28.10;99.90
66013;DHT22;52783;50.502;8.190;2023-06-24T12:10:24;28.40;99.90
66013;DHT22;52783;50.502;8.190;2023-06-24T12:12:51;28.20;99.90
66013;DHT22;52783;50.502;8.190;2023-06-24T12:15:16;28.50;99.90
66013;DHT22;52783;50.502;8.190;2023-06-24T12:17:42;28.40;99.90
66013;DHT22;52783;50.502;8.190;2023-06-24T12:20:08;28.10;99.90
66013;DHT22;52783;50.502;8.190;2023-06-24T12:22:35;28.20;99.90
66013;DHT22;52783;50.502;8.190;2023-06-24T12:25:00;28.10;99.90
66013;DHT22;52783;50.502;8.190;2023-06-24T12:27:26;28.20;99.90
66013;DHT22;52783;50.502;8.190;2023-06-24T12:29:52;28.00;99.90
66013;DHT22;52783;50.502;8.190;2023-06-24T12:32:17;28.50;99.90
66013;DHT22;52783;50.502;8.190;2023-06-24T12:34:43;28.60;99.90
66013;DHT22;52783;50.502;8.190;2023-06-24T12:37:08;28.50;99.90
66013;DHT22;52783;50.502;8.190;2023-06-24T12:39:34;28.20;99.90
66013;DHT22;52783;50.502;8.190;2023-06-24T12:41:59;28.20;99.90
66013;DHT22;52783;50.502;8.190;2023-06-24T12:44:25;27.90;99.90
66013;DHT22;52783;50.502;8.190;2023-06-24T12:46:50;28.40;99.90
66013;DHT22;52783;50.502;8.190;2023-06-24T12:49:16;28.80;99.90
66013;DHT22;52783;50.502;8.190;2023-06-24T12:51:41;28.20;99.90
66013;DHT22;52783;50.502;8.190;2023-06-24T12:54:07;28.30;99.90
66013;DHT22;52783;50.502;8.190;2023-06-24T12:56:33;28.30;99.90
66013;DHT22;52783;50.502;8.190;2023-06-24T12:58:59;28.90;99.90
66013;DHT22;52783;50.502;8.190;2023-06-24T13:01:24;29.20;99.90
66013;DHT22;52783;50.502;8.190;2023-06-24T13:03:50;29.40;99.90
66013;DHT22;52783;50.502;8.190;2023-06-24T13:06:15;29.30;99.90
66013;DHT22;52783;50.502;8.190;2023-06-24T13:08:41;29.50;99.90
66013;DHT22;52783;50.502;8.190;2023-06-24T13:11:07;29.40;99.90
66013;DHT22;52783;50.502;8.190;2023-06-24T13:13:32;29.00;99.90
66013;DHT22;52783;50.502;8.190;2023-06-24T13:15:58;28.70;99.90
66013;DHT22;52783;50.502;8.190;2023-06-24T13:18:23;28.50;99.90
66013;DHT22;52783;50.502;8.190;2023-06-24T13:20:49;28.40;99.90
66013;DHT22;52783;50.502;8.190;2023-06-24T13:23:14;27.90;99.90
66013;DHT22;52783;50.502;8.190;2023-06-24T13:25:40;28.50;99.90
66013;DHT22;52783;50.502;8.190;2023-06-24T13:28:05;29.00;99.90
66013;DHT22;52783;50.502;8.190;2023-06-24T13:30:31;29.00;99.90
66013;DHT22;52783;50.502;8.190;2023-06-24T13:32:57;28.90;99.90
66013;DHT22;52783;50.502;8.190;2023-06-24T13:35:22;29.00;99.90
66013;DHT22;52783;50.502;8.190;2023-06-24T13:37:48;29.00;99.90
66013;DHT22;52783;50.502;8.190;2023-06-24T13:40:13;28.40;99.90
66013;DHT22;52783;50.502;8.190;2023-06-24T13:42:39;28.40;99.90
66013;DHT22;52783;50.502;8.190;2023-06-24T13:45:05;29.10;99.90
66013;DHT22;52783;50.502;8.190;2023-06-24T13:47:30;29.40;99.90
66013;DHT22;52783;50.502;8.190;2023-06-24T13:49:56;29.70;99.90
66013;DHT22;52783;50.502;8.190;2023-06-24T13:52:22;30.00;99.90
66013;DHT22;52783;50.502;8.190;2023-06-24T13:54:48;29.90;99.90
66013;DHT22;52783;50.502;8.190;2023-06-24T13:57:13;29.80;99.90
66013;DHT22;52783;50.502;8.190;2023-06-24T13:59:39;29.90;99.90
66013;DHT22;52783;50.502;8.190;2023-06-24T14:02:05;29.70;99.90
66013;DHT22;52783;50.502;8.190;2023-06-24T14:04:30;30.00;99.90
66013;DHT22;52783;50.502;8.190;2023-06-24T14:06:56;30.20;99.90
66013;DHT22;52783;50.502;8.190;2023-06-24T14:09:21;30.20;99.90
66013;DHT22;52783;50.502;8.190;2023-06-24T14:11:47;30.20;99.90
66013;DHT22;52783;50.502;8.190;2023-06-24T14:14:13;29.90;99.90
66013;DHT22;52783;50.502;8.190;2023-06-24T14:20:00;30.40;99.90
66013;DHT22;52783;50.502;8.190;2023-06-24T14:22:26;30.70;99.90
66013;DHT22;52783;50.502;8.190;2023-06-24T14:24:51;30.70;99.90
66013;DHT22;52783;50.502;8.190;2023-06-24T14:27:17;30.60;99.90
66013;DHT22;52783;50.502;8.190;2023-06-24T14:29:43;30.70;99.90
66013;DHT22;52783;50.502;8.190;2023-06-24T14:32:08;30.80;99.90
66013;DHT22;52783;50.502;8.190;2023-06-24T14:34:34;30.10;99.90
66013;DHT22;52783;50.502;8.190;2023-06-24T14:36:59;30.80;99.90
66013;DHT22;52783;50.502;8.190;2023-06-24T14:39:25;30.70;99.90
66013;DHT22;52783;50.502;8.190;2023-06-24T14:41:50;30.20;99.90
66013;DHT22;52783;50.502;8.190;2023-06-24T14:44:16;29.60;99.90
66013;DHT22;52783;50.502;8.190;2023-06-24T14:46:42;30.20;99.90
66013;DHT22;52783;50.502;8.190;2023-06-24T14:49:07;30.50;99.90
66013;DHT22;52783;50.502;8.190;2023-06-24T14:51:33;30.30;99.90
66013;DHT22;52783;50.502;8.190;2023-06-24T14:53:58;30.00;99.90
66013;DHT22;52783;50.502;8.190;2023-06-24T14:56:24;29.90;99.90
66013;DHT22;52783;50.502;8.190;2023-06-24T14:58:50;30.00;99.90
66013;DHT22;52783;50.502;8.190;2023-06-24T15:01:16;30.00;99.90
66013;DHT22;52783;50.502;8.190;2023-06-24T15:03:41;29.80;99.90
66013;DHT22;52783;50.502;8.190;2023-06-24T15:06:07;29.60;99.90
66013;DHT22;52783;50.502;8.190;2023-06-24T15:08:32;28.90;99.90
66013;DHT22;52783;50.502;8.190;2023-06-24T15:10:58;28.60;99.90
66013;DHT22;52783;50.502;8.190;2023-06-24T15:13:24;28.40;99.90
66013;DHT22;52783;50.502;8.190;2023-06-24T15:15:49;28.40;99.90
66013;DHT22;52783;50.502;8.190;2023-06-24T15:18:17;28.60;99.90
66013;DHT22;52783;50.502;8.190;2023-06-24T15:20:42;28.40;99.90
66013;DHT22;52783;50.502;8.190;2023-06-24T15:23:08;28.50;99.90
66013;DHT22;52783;50.502;8.190;2023-06-24T15:25:33;29.00;99.90
66013;DHT22;52783;50.502;8.190;2023-06-24T15:28:00;28.30;99.90
66013;DHT22;52783;50.502;8.190;2023-06-24T15:30:26;28.40;99.90
66013;DHT22;52783;50.502;8.190;2023-06-24T15:32:52;28.30;99.90
66013;DHT22;52783;50.502;8.190;2023-06-24T15:35:18;28.20;99.90
66013;DHT22;52783;50.502;8.190;2023-06-24T15:37:44;28.30;99.90
66013;DHT22;52783;50.502;8.190;2023-06-24T15:40:09;28.20;99.90
66013;DHT22;52783;50.502;8.190;2023-06-24T15:42:35;28.20;99.90
66013;DHT22;52783;50.502;8.190;2023-06-24T15:45:00;28.20;99.90
66013;DHT22;52783;50.502;8.190;2023-06-24T15:47:26;28.00;99.90